Terminal Aerodrome Forecast
Issued by NWS Jacksonville, FL

Home | Current Version | Previous Version | Text Only | Print | Product List | Glossary On
Versions: 1 2 3 4 5 6 7 8 9 10 11 12 13 14 15 16 17 18 19 20 21 22 23 24 25 26
000
FTUS42 KJAX 240200 AAB
TAFGNV
TAF AMD
KGNV 240246Z 2403/2424 01008KT P6SM SCT015 SCT040
      TEMPO 2404/2408 BKN010
     FM240800 01008KT P6SM SCT008 OVC010
     FM241500 03010KT P6SM SCT010 BKN020=

USA.gov is the U.S. government's official web portal to all federal, state and local government web resources and services.